Mayport Ns (Adm David L. Mcdonald Field) Airport
KNRB : now visible

Airfield :











YOU CAN JOIN US ON...

 
LOGIN :

Register | Disclaimer

   EN    FR    IT 

 









Legend :    VFR   Marginal VFR   IFR   Intensive IFR   Very Intensive IFR
Visi :
Ceiling :
>= 8 km
>= 3000ft
5 to 8 km
1000 to 3000 ft
1500m to 5 km
500 to 1000 ft
800 to 1500m
200 to 500 ft
< 800m
< 200 ft
Symbols :   Thunderstorms  Fog  Heavy snow  Heavy precipitations  Wind > 20 kt






- Airport Elevation : 15 ft


KNRB - Mayport Ns (Adm David L. Mcdonald Field)

CURRENT METAR :
  • 260552Z AUTO 26007KT 10SM BKN060 24/22 A2983 RMK AO2 SLP100 T02390222 10250 20233 56008

EXPIRED METARs :
  • 260452Z AUTO 25006KT 10SM SCT060 24/23 A2984 RMK AO2 SLP102 T02440228 402830233
  • 260412Z AUTO 26009KT 10SM FEW003 25/23 A2984 RMK AO2 T02500228
  • 260352Z 26006KT 10SM SCT035 25/23 A2985 RMK AO2 SLP106 T02500233

TAF TAF KNRB
Valid from the 25 at 23:00 until the 26 at 23:00 UTC


2523/2623 14004KT 9999 FEW015 SCT030 BKN070 QHN2980INS
FM260200 28006KT 9999 FEW030 QNH2983INS
FM261200 30010KT 9999 FEW030 SCT250 QNH2985INS AUTOMATED SENSOR METWATCH 2604 TIL 2609 T20/2611Z T28/2619Z FN20022
KZJX FIR / North America



MET'MAP, your aeronautical weather chart ! - Copyright ORBIFLY December 2007 - Disclaimer

ORBIFLY MET'MAP TEAM :

Programming & Development : Alexandra Zaïnal
Concept & original design : Baudouin d'Aumeries
Assistance for programming : Marc-Olivier Méhu
Technical & hardware support : Manuel Goepfert

Contact : metmap@orbifly.com




SOURCES & CREDITS :

   NOAA       Earth
Advisory